createdAt,value
2022-10-26T00:02:35.728Z,15.33
2022-10-26T00:05:26.825Z,13.93
2022-10-26T00:08:14.327Z,13.30
2022-10-26T00:11:01.831Z,13.53
2022-10-26T00:13:48.980Z,13.97
2022-10-26T00:16:36.295Z,13.63
2022-10-26T00:19:23.550Z,14.43
2022-10-26T00:22:10.626Z,15.17
2022-10-26T00:24:57.690Z,14.63
2022-10-26T00:30:45.804Z,14.97
2022-10-26T00:33:33.143Z,15.57
2022-10-26T00:36:21.102Z,15.37
2022-10-26T00:39:11.371Z,14.77
2022-10-26T00:42:01.610Z,15.10
2022-10-26T00:44:48.690Z,15.07
2022-10-26T00:47:57.688Z,15.30
2022-10-26T00:50:47.454Z,16.40
2022-10-26T00:53:35.227Z,15.83
2022-10-26T00:56:23.122Z,15.77
2022-10-26T00:59:15.355Z,16.80
2022-10-26T01:02:02.625Z,15.97
2022-10-26T01:04:50.393Z,16.20
2022-10-26T01:07:37.859Z,15.03
2022-10-26T01:10:30.190Z,15.67
2022-10-26T01:13:18.610Z,16.37
2022-10-26T01:16:12.012Z,14.60
2022-10-26T01:19:27.906Z,14.97
2022-10-26T01:22:28.883Z,14.77
2022-10-26T01:25:44.447Z,14.80
2022-10-26T01:28:53.538Z,12.93
2022-10-26T01:32:04.955Z,14.93
2022-10-26T01:35:21.465Z,14.80
2022-10-26T01:38:15.000Z,14.83
2022-10-26T01:41:20.977Z,15.47
2022-10-26T01:44:19.050Z,15.57
2022-10-26T01:47:08.607Z,14.97
2022-10-26T01:49:58.993Z,14.23
2022-10-26T01:52:49.837Z,15.73
2022-10-26T01:55:54.110Z,14.53
2022-10-26T01:58:53.891Z,13.97
2022-10-26T02:02:03.290Z,13.00
2022-10-26T02:04:53.693Z,12.63
2022-10-26T02:07:53.060Z,13.03
2022-10-26T02:11:03.060Z,12.63
2022-10-26T02:14:01.568Z,12.63
2022-10-26T02:16:58.608Z,12.50
2022-10-26T02:20:08.125Z,12.17
2022-10-26T02:22:59.618Z,12.60
2022-10-26T02:25:53.376Z,12.23
2022-10-26T02:28:46.308Z,12.20
2022-10-26T02:31:36.739Z,12.93
2022-10-26T02:34:27.949Z,12.87
2022-10-26T02:37:18.635Z,11.00
2022-10-26T02:40:13.090Z,12.47
2022-10-26T02:43:06.543Z,12.30
2022-10-26T02:46:02.712Z,11.17
2022-10-26T02:48:49.784Z,11.63
2022-10-26T02:51:40.411Z,11.53
2022-10-26T02:55:00.662Z,12.10
2022-10-26T02:57:52.327Z,12.00
2022-10-26T03:00:40.035Z,11.37
2022-10-26T03:03:27.503Z,11.63
2022-10-26T03:06:22.825Z,12.97
2022-10-26T03:09:09.885Z,12.03
2022-10-26T03:11:57.252Z,13.00
2022-10-26T03:14:44.527Z,11.97
2022-10-26T03:17:31.619Z,11.40
2022-10-26T03:20:18.965Z,13.33
2022-10-26T03:23:06.064Z,12.80
2022-10-26T03:25:57.494Z,12.60
2022-10-26T03:28:45.223Z,12.57
2022-10-26T03:31:32.263Z,12.43
2022-10-26T03:34:19.434Z,12.17
2022-10-26T03:37:06.529Z,11.60
2022-10-26T03:39:54.946Z,10.63
2022-10-26T03:42:42.088Z,12.43
2022-10-26T03:45:29.412Z,10.33
2022-10-26T03:48:16.484Z,11.07
2022-10-26T03:51:04.696Z,11.27
2022-10-26T03:53:52.070Z,11.73
2022-10-26T03:56:39.090Z,11.47
2022-10-26T03:59:27.535Z,11.43
2022-10-26T04:02:15.471Z,10.17
2022-10-26T04:05:02.474Z,11.13
2022-10-26T04:08:03.378Z,10.77
2022-10-26T04:10:50.839Z,11.83
2022-10-26T04:13:38.399Z,10.83
2022-10-26T04:16:30.992Z,11.37
2022-10-26T04:19:20.440Z,11.57
2022-10-26T04:22:07.818Z,11.30
2022-10-26T04:24:54.887Z,11.20
2022-10-26T04:27:41.936Z,11.47
2022-10-26T04:30:29.167Z,11.73
2022-10-26T04:33:16.215Z,11.17
2022-10-26T04:36:03.379Z,11.03
2022-10-26T04:38:51.586Z,12.47
2022-10-26T04:41:38.644Z,11.57
2022-10-26T04:44:25.671Z,12.87
2022-10-26T04:47:12.745Z,11.90
2022-10-26T04:49:59.798Z,11.23
2022-10-26T04:52:51.863Z,10.83
2022-10-26T04:55:39.087Z,11.00
2022-10-26T04:58:31.870Z,10.07
2022-10-26T05:01:18.969Z,10.17
2022-10-26T05:04:06.045Z,10.30
2022-10-26T05:06:54.067Z,10.20
2022-10-26T05:09:41.759Z,10.23
2022-10-26T05:12:28.766Z,10.07
2022-10-26T05:15:15.941Z,10.37
2022-10-26T05:18:05.757Z,9.83
2022-10-26T05:20:54.411Z,10.00
2022-10-26T05:26:55.074Z,10.60
2022-10-26T05:29:42.114Z,10.97
2022-10-26T05:32:29.417Z,12.33
2022-10-26T05:35:16.793Z,11.57
2022-10-26T05:38:08.971Z,11.63
2022-10-26T05:40:56.077Z,11.83
2022-10-26T05:43:43.339Z,10.53
2022-10-26T05:46:30.364Z,12.93
2022-10-26T05:49:17.606Z,11.87
2022-10-26T05:52:06.190Z,12.80
2022-10-26T05:54:54.490Z,13.60
2022-10-26T05:57:42.682Z,13.10
2022-10-26T06:00:34.031Z,13.13
2022-10-26T06:09:42.395Z,13.00
2022-10-26T06:12:29.823Z,14.00
2022-10-26T06:15:21.152Z,14.63
2022-10-26T06:18:26.419Z,14.67
2022-10-26T06:21:32.482Z,15.00
2022-10-26T06:24:54.480Z,14.40
2022-10-26T06:27:54.703Z,15.20
2022-10-26T06:30:42.764Z,13.53
2022-10-26T06:33:30.752Z,14.57
2022-10-26T06:36:24.079Z,15.13
2022-10-26T06:39:12.912Z,13.73
2022-10-26T06:42:00.537Z,13.57
2022-10-26T06:44:47.878Z,13.13
2022-10-26T06:47:53.371Z,14.40
2022-10-26T06:50:49.662Z,14.23
2022-10-26T06:53:50.108Z,12.50
2022-10-26T06:56:38.309Z,12.23
2022-10-26T06:59:42.851Z,12.83
2022-10-26T07:02:29.959Z,12.50
2022-10-26T07:05:17.779Z,12.20
2022-10-26T07:08:05.377Z,13.53
2022-10-26T07:10:52.464Z,12.90
2022-10-26T07:13:39.597Z,14.27
2022-10-26T07:16:26.593Z,13.77
2022-10-26T07:19:13.659Z,13.57
2022-10-26T07:22:04.025Z,13.60
2022-10-26T07:24:52.210Z,12.93
2022-10-26T07:27:39.550Z,12.97
2022-10-26T07:30:27.998Z,11.83
2022-10-26T07:33:15.222Z,12.70
2022-10-26T07:36:02.338Z,12.13
2022-10-26T07:41:23.195Z,12.03
2022-10-26T07:44:10.258Z,10.47
2022-10-26T07:46:58.873Z,11.07
2022-10-26T07:49:49.912Z,12.07
2022-10-26T07:52:39.063Z,11.67
2022-10-26T07:55:27.448Z,11.93
2022-10-26T07:58:14.465Z,11.57
2022-10-26T08:01:13.616Z,12.27
2022-10-26T08:04:00.721Z,12.30
2022-10-26T08:06:48.825Z,11.87
2022-10-26T08:09:35.868Z,11.47
2022-10-26T08:12:22.912Z,11.00
2022-10-26T08:15:10.196Z,11.00
2022-10-26T08:17:57.133Z,10.20
2022-10-26T08:20:44.162Z,9.77
2022-10-26T08:23:31.767Z,9.07
2022-10-26T08:26:23.782Z,8.43
2022-10-26T08:29:15.319Z,8.90
2022-10-26T08:32:03.124Z,8.53
2022-10-26T08:34:50.174Z,9.73
2022-10-26T08:37:37.281Z,7.87
2022-10-26T08:40:36.934Z,7.60
2022-10-26T08:43:29.402Z,7.17
2022-10-26T08:46:31.030Z,7.03
2022-10-26T08:49:26.765Z,6.80
2022-10-26T08:52:17.867Z,6.37
2022-10-26T08:55:13.695Z,6.60
2022-10-26T08:58:05.833Z,5.30
2022-10-26T09:00:53.079Z,4.47
2022-10-26T09:03:40.135Z,4.60
2022-10-26T09:07:05.670Z,4.33
2022-10-26T09:10:34.313Z,3.57
2022-10-26T09:13:42.680Z,3.83
2022-10-26T09:16:54.140Z,3.20
2022-10-26T09:19:53.903Z,3.20
2022-10-26T09:23:07.931Z,3.13
2022-10-26T09:26:01.322Z,2.67
2022-10-26T09:28:49.253Z,2.90
2022-10-26T09:31:43.351Z,2.30
2022-10-26T09:34:51.903Z,2.57
2022-10-26T09:37:47.882Z,2.57
2022-10-26T09:40:44.477Z,2.33
2022-10-26T09:46:46.750Z,2.87
2022-10-26T09:49:45.429Z,2.40
2022-10-26T09:52:32.548Z,2.37
2022-10-26T09:55:21.015Z,2.23
2022-10-26T09:58:16.129Z,2.23
2022-10-26T10:01:03.646Z,2.20
2022-10-26T10:04:17.977Z,2.00
2022-10-26T10:07:04.848Z,2.43
2022-10-26T10:10:15.404Z,1.77
2022-10-26T10:13:16.340Z,2.10
2022-10-26T10:16:14.557Z,2.30
2022-10-26T10:19:02.291Z,2.30
2022-10-26T10:21:51.263Z,2.23
2022-10-26T10:24:42.405Z,2.53
2022-10-26T10:27:30.876Z,2.03
2022-10-26T10:30:23.762Z,2.00
2022-10-26T10:33:13.539Z,2.47
2022-10-26T10:36:01.789Z,2.27
2022-10-26T10:38:51.082Z,2.20
2022-10-26T10:41:38.994Z,2.13
2022-10-26T10:44:31.507Z,2.10
2022-10-26T10:47:27.655Z,1.93
2022-10-26T10:50:14.597Z,1.90
2022-10-26T10:53:19.901Z,1.80
2022-10-26T10:56:18.922Z,1.90
2022-10-26T10:59:21.055Z,2.00
2022-10-26T11:02:14.227Z,2.03
2022-10-26T11:05:01.478Z,1.80
2022-10-26T11:07:57.440Z,1.53
2022-10-26T11:11:11.814Z,1.60
2022-10-26T11:14:04.765Z,1.73
2022-10-26T11:17:41.319Z,1.97
2022-10-26T11:20:29.972Z,1.80
2022-10-26T11:23:28.913Z,2.30
2022-10-26T11:26:31.946Z,1.80
2022-10-26T11:29:44.645Z,1.97
2022-10-26T11:32:49.818Z,2.03
2022-10-26T11:36:21.117Z,1.70
2022-10-26T11:39:25.684Z,1.90
2022-10-26T11:42:21.067Z,2.10
2022-10-26T11:45:30.875Z,1.80
2022-10-26T11:48:31.305Z,2.20
2022-10-26T11:51:30.374Z,2.03
2022-10-26T11:54:24.259Z,2.10
2022-10-26T11:57:12.509Z,1.70
2022-10-26T12:00:14.550Z,1.67
2022-10-26T12:03:08.624Z,1.97
2022-10-26T12:05:55.582Z,1.57
2022-10-26T12:08:47.665Z,1.70
2022-10-26T12:11:55.806Z,1.80
2022-10-26T12:14:50.461Z,1.87
2022-10-26T12:17:48.338Z,1.70
2022-10-26T12:21:02.635Z,1.63
2022-10-26T12:24:01.294Z,1.60
2022-10-26T12:26:53.932Z,1.60
2022-10-26T12:29:49.466Z,2.07
2022-10-26T12:32:39.128Z,1.93
2022-10-26T12:35:39.676Z,1.60
2022-10-26T12:38:30.267Z,1.50
2022-10-26T12:41:23.942Z,1.67
2022-10-26T12:44:38.021Z,1.83
2022-10-26T12:47:28.077Z,1.30
2022-10-26T12:50:15.042Z,1.70
2022-10-26T12:53:14.046Z,1.50
2022-10-26T12:56:06.797Z,1.50
2022-10-26T12:59:05.739Z,1.40
2022-10-26T13:02:28.264Z,1.30
2022-10-26T13:05:33.560Z,2.10
2022-10-26T13:08:20.635Z,1.40
2022-10-26T13:11:17.641Z,1.60
2022-10-26T13:14:07.645Z,1.60
2022-10-26T13:16:55.324Z,1.53
2022-10-26T13:19:45.756Z,1.50
2022-10-26T13:22:33.390Z,1.60
2022-10-26T13:25:29.719Z,1.60
2022-10-26T13:28:29.031Z,1.43
2022-10-26T13:31:39.712Z,1.70
2022-10-26T13:34:31.065Z,1.90
2022-10-26T13:37:24.592Z,1.63
2022-10-26T13:40:18.867Z,1.60
2022-10-26T13:43:11.574Z,1.77
2022-10-26T13:46:04.179Z,1.77
2022-10-26T13:48:53.824Z,1.43
2022-10-26T13:51:48.818Z,1.70
2022-10-26T13:54:43.824Z,1.93
2022-10-26T13:57:45.083Z,1.87
2022-10-26T14:00:32.580Z,1.50
2022-10-26T14:03:21.797Z,1.73
2022-10-26T14:06:30.796Z,2.00
2022-10-26T14:09:20.757Z,2.00
2022-10-26T14:12:11.717Z,1.90
2022-10-26T14:15:07.158Z,1.67
2022-10-26T14:17:58.681Z,1.70
2022-10-26T14:21:02.775Z,1.70
2022-10-26T14:23:58.376Z,2.00
2022-10-26T14:26:48.085Z,1.70
2022-10-26T14:29:38.751Z,2.00
2022-10-26T14:32:37.074Z,1.93
2022-10-26T14:35:36.634Z,2.00
2022-10-26T14:38:30.193Z,2.10
2022-10-26T14:41:18.303Z,2.13
2022-10-26T14:44:18.109Z,1.90
2022-10-26T14:47:26.514Z,2.00
2022-10-26T14:50:27.629Z,1.90
2022-10-26T14:53:16.989Z,2.40
2022-10-26T14:56:07.488Z,2.23
2022-10-26T14:58:55.659Z,2.63
2022-10-26T15:02:21.157Z,2.33
2022-10-26T15:05:25.426Z,2.10
2022-10-26T15:08:56.066Z,2.10
2022-10-26T15:11:48.745Z,1.90
2022-10-26T15:14:35.810Z,1.87
2022-10-26T15:17:39.776Z,2.30
2022-10-26T15:20:29.082Z,2.50
2022-10-26T15:23:16.822Z,2.37
2022-10-26T15:26:04.438Z,2.40
2022-10-26T15:28:53.037Z,2.17
2022-10-26T15:31:40.257Z,2.30
2022-10-26T15:34:27.361Z,2.23
2022-10-26T15:37:14.331Z,2.20
2022-10-26T15:40:01.951Z,2.40
2022-10-26T15:42:51.748Z,2.70
2022-10-26T15:45:52.706Z,2.60
2022-10-26T15:48:40.663Z,2.63
2022-10-26T15:51:30.142Z,2.77
2022-10-26T15:54:17.279Z,2.80
2022-10-26T15:57:04.695Z,2.73
2022-10-26T15:59:51.727Z,2.90
2022-10-26T16:02:41.802Z,3.13
2022-10-26T16:05:28.871Z,3.10
2022-10-26T16:08:18.518Z,3.33
2022-10-26T16:11:05.854Z,3.23
2022-10-26T16:13:52.953Z,3.23
2022-10-26T16:16:40.159Z,3.10
2022-10-26T16:19:31.447Z,3.03
2022-10-26T16:22:19.034Z,3.00
2022-10-26T16:25:06.724Z,3.23
2022-10-26T16:27:55.320Z,3.40
2022-10-26T16:30:42.852Z,3.60
2022-10-26T16:33:30.095Z,3.57
2022-10-26T16:36:17.120Z,5.37
2022-10-26T16:39:04.943Z,5.20
2022-10-26T16:41:52.438Z,5.53
2022-10-26T16:44:39.733Z,5.63
2022-10-26T16:47:27.489Z,5.87
2022-10-26T16:50:14.970Z,5.60
2022-10-26T16:53:02.045Z,5.40
2022-10-26T16:55:49.054Z,5.90
2022-10-26T16:58:37.551Z,5.10
2022-10-26T17:01:24.900Z,4.63
2022-10-26T17:04:11.987Z,5.20
2022-10-26T17:06:59.094Z,4.43
2022-10-26T17:09:46.076Z,4.90
2022-10-26T17:12:33.078Z,5.07
2022-10-26T17:15:20.630Z,4.67
2022-10-26T17:18:10.762Z,5.20
2022-10-26T17:20:58.028Z,5.47
2022-10-26T17:23:48.142Z,5.60
2022-10-26T17:26:35.109Z,5.27
2022-10-26T17:29:22.068Z,4.90
2022-10-26T17:32:09.035Z,5.10
2022-10-26T17:34:55.947Z,5.97
2022-10-26T17:37:43.126Z,6.13
2022-10-26T17:40:31.286Z,6.10
2022-10-26T17:43:18.334Z,6.47
2022-10-26T17:46:07.817Z,7.33
2022-10-26T17:48:59.325Z,7.23
2022-10-26T17:51:46.235Z,6.50
2022-10-26T17:54:33.295Z,6.57
2022-10-26T17:57:20.246Z,8.03
2022-10-26T18:00:07.825Z,8.17
2022-10-26T18:02:55.568Z,7.30
2022-10-26T18:05:49.631Z,8.30
2022-10-26T18:08:39.291Z,7.63
2022-10-26T18:11:27.620Z,8.30
2022-10-26T18:14:14.850Z,7.30
2022-10-26T18:17:01.822Z,7.60
2022-10-26T18:19:48.873Z,7.50
2022-10-26T18:22:36.017Z,8.23
2022-10-26T18:25:23.915Z,7.93
2022-10-26T18:31:03.788Z,7.23
2022-10-26T18:33:59.151Z,7.53
2022-10-26T18:36:46.772Z,6.87
2022-10-26T18:39:34.245Z,7.53
2022-10-26T18:42:21.193Z,7.27
2022-10-26T18:45:08.498Z,7.20
2022-10-26T18:47:56.364Z,7.93
2022-10-26T18:50:43.361Z,7.43
2022-10-26T18:53:32.468Z,7.50
2022-10-26T18:56:21.172Z,7.93
2022-10-26T18:59:08.242Z,7.90
2022-10-26T19:01:55.343Z,7.13
2022-10-26T19:04:42.588Z,8.43
2022-10-26T19:07:30.382Z,7.73
2022-10-26T19:10:17.355Z,8.07
2022-10-26T19:13:05.954Z,7.97
2022-10-26T19:16:05.190Z,7.90
2022-10-26T19:21:40.371Z,7.40
2022-10-26T19:24:27.467Z,7.60
2022-10-26T19:27:14.436Z,8.33
2022-10-26T19:30:01.461Z,7.83
2022-10-26T19:32:48.431Z,8.90
2022-10-26T19:38:23.809Z,8.57
2022-10-26T19:41:13.047Z,7.40
2022-10-26T19:46:46.887Z,6.77
2022-10-26T19:49:33.962Z,6.73
2022-10-26T19:52:20.983Z,6.80
2022-10-26T19:55:09.204Z,7.27
2022-10-26T19:57:56.151Z,7.23
2022-10-26T20:00:43.342Z,6.00
2022-10-26T20:03:31.005Z,6.73
2022-10-26T20:06:18.403Z,6.50
2022-10-26T20:09:05.493Z,6.50
2022-10-26T20:11:52.638Z,6.13
2022-10-26T20:14:40.371Z,7.03
2022-10-26T20:17:28.512Z,6.87
2022-10-26T20:20:15.757Z,6.40
2022-10-26T20:23:02.686Z,7.30
2022-10-26T20:25:51.414Z,7.47
2022-10-26T20:28:38.432Z,6.70
2022-10-26T20:31:25.421Z,6.80
2022-10-26T20:34:12.369Z,6.93
2022-10-26T20:36:59.358Z,7.57
2022-10-26T20:39:46.757Z,7.30
2022-10-26T20:42:34.068Z,6.53
2022-10-26T20:45:30.305Z,6.83
2022-10-26T20:48:18.267Z,6.80
2022-10-26T20:51:10.519Z,7.50
2022-10-26T20:54:12.135Z,7.67
2022-10-26T20:57:02.170Z,7.20
2022-10-26T20:59:55.959Z,7.43
2022-10-26T21:02:43.037Z,7.63
2022-10-26T21:05:33.981Z,8.23
2022-10-26T21:08:22.286Z,8.67
2022-10-26T21:11:09.223Z,8.40
2022-10-26T21:13:56.298Z,6.53
2022-10-26T21:16:43.303Z,6.63
2022-10-26T21:19:33.086Z,7.20
2022-10-26T21:22:20.057Z,6.57
2022-10-26T21:25:07.362Z,7.17
2022-10-26T21:27:56.066Z,7.50
2022-10-26T21:30:43.156Z,7.47
2022-10-26T21:33:32.215Z,7.60
2022-10-26T21:36:19.213Z,8.20
2022-10-26T21:39:06.253Z,8.03
2022-10-26T21:41:53.231Z,6.97
2022-10-26T21:44:41.890Z,7.40
2022-10-26T21:47:29.287Z,7.10
2022-10-26T21:50:16.494Z,7.20
2022-10-26T21:53:03.888Z,7.77
2022-10-26T21:56:00.546Z,7.80
2022-10-26T21:58:48.938Z,8.23
2022-10-26T22:01:36.824Z,8.10
2022-10-26T22:04:24.082Z,8.13
2022-10-26T22:07:11.430Z,7.70
2022-10-26T22:10:11.838Z,8.57
2022-10-26T22:13:01.722Z,7.80
2022-10-26T22:15:49.750Z,8.37
2022-10-26T22:18:39.437Z,7.93
2022-10-26T22:21:28.179Z,8.73
2022-10-26T22:24:15.366Z,8.07
2022-10-26T22:27:02.360Z,7.97
2022-10-26T22:29:49.265Z,8.93
2022-10-26T22:32:36.265Z,9.03
2022-10-26T22:35:30.452Z,8.80
2022-10-26T22:38:17.437Z,8.80
2022-10-26T22:41:04.798Z,9.00
2022-10-26T22:43:52.028Z,8.50
2022-10-26T22:46:39.106Z,7.77
2022-10-26T22:49:26.126Z,8.33
2022-10-26T22:52:13.289Z,9.43
2022-10-26T22:55:00.473Z,9.60
2022-10-26T22:57:49.207Z,8.57
2022-10-26T23:00:37.761Z,9.13
2022-10-26T23:03:24.721Z,9.10
2022-10-26T23:06:17.290Z,8.50
2022-10-26T23:09:05.462Z,8.90
2022-10-26T23:11:52.438Z,10.33
2022-10-26T23:14:39.437Z,8.70
2022-10-26T23:17:26.465Z,8.50
2022-10-26T23:20:13.418Z,9.60
2022-10-26T23:23:00.981Z,9.87
2022-10-26T23:25:48.005Z,9.73
2022-10-26T23:28:36.628Z,9.57
2022-10-26T23:31:28.582Z,8.73
2022-10-26T23:34:15.506Z,9.03
2022-10-26T23:37:02.442Z,10.30
2022-10-26T23:39:49.364Z,10.03
2022-10-26T23:42:36.284Z,10.20
2022-10-26T23:45:23.752Z,12.43
2022-10-26T23:48:10.747Z,9.70
2022-10-26T23:50:58.037Z,10.73
2022-10-26T23:53:44.977Z,11.00
2022-10-26T23:56:32.022Z,11.73
2022-10-26T23:59:19.732Z,10.27
